sensor_id;sensor_type;location;lat;lon;timestamp;pressure;altitude;pressure_sealevel;temperature;humidity
9261;BME280;4667;42.726;23.252;2023-10-09T00:01:29;95718.38;;;19.37;44.73
9261;BME280;4667;42.726;23.252;2023-10-09T00:03:57;95699.53;;;19.29;44.66
9261;BME280;4667;42.726;23.252;2023-10-09T00:06:26;95709.22;;;19.25;44.99
9261;BME280;4667;42.726;23.252;2023-10-09T00:09:03;95697.84;;;19.33;44.57
9261;BME280;4667;42.726;23.252;2023-10-09T00:11:42;95691.94;;;19.17;44.72
9261;BME280;4667;42.726;23.252;2023-10-09T00:14:10;95696.66;;;19.06;44.97
9261;BME280;4667;42.726;23.252;2023-10-09T00:16:38;95693.31;;;18.95;45.15
9261;BME280;4667;42.726;23.252;2023-10-09T00:19:12;95710.59;;;19.03;44.99
9261;BME280;4667;42.726;23.252;2023-10-09T00:21:43;95707.19;;;18.98;45.23
9261;BME280;4667;42.726;23.252;2023-10-09T00:24:10;95649.28;;;18.50;45.55
9261;BME280;4667;42.726;23.252;2023-10-09T00:26:43;95711.38;;;18.85;45.54
9261;BME280;4667;42.726;23.252;2023-10-09T00:29:12;95699.50;;;18.72;45.91
9261;BME280;4667;42.726;23.252;2023-10-09T00:31:49;95539.22;;;17.67;45.82
9261;BME280;4667;42.726;23.252;2023-10-09T00:34:29;95695.91;;;18.58;46.05
9261;BME280;4667;42.726;23.252;2023-10-09T00:37:04;95692.97;;;18.59;45.88
9261;BME280;4667;42.726;23.252;2023-10-09T00:39:36;95686.84;;;18.35;46.34
9261;BME280;4667;42.726;23.252;2023-10-09T00:42:09;95647.25;;;17.94;46.64
9261;BME280;4667;42.726;23.252;2023-10-09T00:44:39;95713.09;;;18.04;47.31
9261;BME280;4667;42.726;23.252;2023-10-09T00:47:11;95710.38;;;18.09;47.01
9261;BME280;4667;42.726;23.252;2023-10-09T00:49:53;95714.91;;;18.08;46.77
9261;BME280;4667;42.726;23.252;2023-10-09T00:52:26;95703.59;;;17.92;46.82
9261;BME280;4667;42.726;23.252;2023-10-09T00:54:58;95670.34;;;17.51;47.15
9261;BME280;4667;42.726;23.252;2023-10-09T00:57:30;95709.34;;;17.76;46.87
9261;BME280;4667;42.726;23.252;2023-10-09T01:00:00;95708.38;;;17.61;46.78
9261;BME280;4667;42.726;23.252;2023-10-09T01:02:40;95727.13;;;17.51;47.33
9261;BME280;4667;42.726;23.252;2023-10-09T01:05:09;95703.25;;;17.36;47.07
9261;BME280;4667;42.726;23.252;2023-10-09T01:07:45;95713.84;;;17.46;47.00
9261;BME280;4667;42.726;23.252;2023-10-09T01:10:12;95732.47;;;17.51;46.90
9261;BME280;4667;42.726;23.252;2023-10-09T01:12:42;95733.84;;;17.44;47.09
9261;BME280;4667;42.726;23.252;2023-10-09T01:15:10;95735.47;;;17.39;46.97
9261;BME280;4667;42.726;23.252;2023-10-09T01:17:58;95756.38;;;17.22;47.39
9261;BME280;4667;42.726;23.252;2023-10-09T01:20:25;95764.81;;;17.34;47.12
9261;BME280;4667;42.726;23.252;2023-10-09T01:22:56;95760.34;;;17.25;47.30
9261;BME280;4667;42.726;23.252;2023-10-09T01:25:24;95760.34;;;17.25;47.31
9261;BME280;4667;42.726;23.252;2023-10-09T01:27:57;95749.72;;;17.20;47.36
9261;BME280;4667;42.726;23.252;2023-10-09T01:30:24;95718.16;;;16.93;47.72
9261;BME280;4667;42.726;23.252;2023-10-09T01:32:50;95740.81;;;16.95;48.11
9261;BME280;4667;42.726;23.252;2023-10-09T01:35:17;95719.63;;;16.75;48.41
9261;BME280;4667;42.726;23.252;2023-10-09T01:37:46;95653.78;;;16.16;48.34
9261;BME280;4667;42.726;23.252;2023-10-09T01:40:16;95767.31;;;16.61;48.34
9261;BME280;4667;42.726;23.252;2023-10-09T01:42:52;95776.16;;;16.41;48.69
9261;BME280;4667;42.726;23.252;2023-10-09T01:45:19;95747.69;;;16.31;48.12
9261;BME280;4667;42.726;23.252;2023-10-09T01:47:53;95740.78;;;16.25;47.67
9261;BME280;4667;42.726;23.252;2023-10-09T01:50:20;95737.34;;;16.15;48.14
9261;BME280;4667;42.726;23.252;2023-10-09T01:52:47;95774.03;;;16.38;48.01
9261;BME280;4667;42.726;23.252;2023-10-09T01:55:14;95791.63;;;16.29;48.14
9261;BME280;4667;42.726;23.252;2023-10-09T01:57:54;95779.13;;;16.24;48.03
9261;BME280;4667;42.726;23.252;2023-10-09T02:00:23;95797.75;;;16.29;48.15
9261;BME280;4667;42.726;23.252;2023-10-09T02:02:54;95785.75;;;16.22;48.27
9261;BME280;4667;42.726;23.252;2023-10-09T02:05:21;95788.44;;;16.11;48.75
9261;BME280;4667;42.726;23.252;2023-10-09T02:07:51;95794.84;;;15.80;49.47
9261;BME280;4667;42.726;23.252;2023-10-09T02:10:19;95786.88;;;15.65;49.88
9261;BME280;4667;42.726;23.252;2023-10-09T02:12:59;95802.31;;;15.68;49.74
9261;BME280;4667;42.726;23.252;2023-10-09T02:15:31;95815.00;;;15.55;50.56
9261;BME280;4667;42.726;23.252;2023-10-09T02:18:16;95811.53;;;15.45;50.42
9261;BME280;4667;42.726;23.252;2023-10-09T02:20:44;95820.88;;;15.52;50.59
9261;BME280;4667;42.726;23.252;2023-10-09T02:23:11;95809.41;;;15.42;50.42
9261;BME280;4667;42.726;23.252;2023-10-09T02:25:39;95835.47;;;15.55;50.41
9261;BME280;4667;42.726;23.252;2023-10-09T02:28:10;95840.00;;;15.49;50.75
9261;BME280;4667;42.726;23.252;2023-10-09T02:30:43;95853.28;;;15.49;50.68
9261;BME280;4667;42.726;23.252;2023-10-09T02:33:13;95849.03;;;15.43;50.82
9261;BME280;4667;42.726;23.252;2023-10-09T02:35:44;95853.53;;;15.43;50.77
9261;BME280;4667;42.726;23.252;2023-10-09T02:38:16;95858.38;;;15.56;50.18
9261;BME280;4667;42.726;23.252;2023-10-09T02:40:43;95858.59;;;15.49;50.32
9261;BME280;4667;42.726;23.252;2023-10-09T02:43:41;95828.81;;;15.37;50.34
9261;BME280;4667;42.726;23.252;2023-10-09T02:46:11;95839.13;;;15.28;50.71
9261;BME280;4667;42.726;23.252;2023-10-09T02:48:43;95814.38;;;15.07;50.67
9261;BME280;4667;42.726;23.252;2023-10-09T02:51:13;95824.44;;;15.00;51.01
9261;BME280;4667;42.726;23.252;2023-10-09T02:53:47;95833.47;;;15.04;51.11
9261;BME280;4667;42.726;23.252;2023-10-09T02:56:15;95841.13;;;14.86;51.62
9261;BME280;4667;42.726;23.252;2023-10-09T02:58:50;95845.06;;;14.83;51.89
9261;BME280;4667;42.726;23.252;2023-10-09T03:01:17;95720.44;;;14.03;51.60
9261;BME280;4667;42.726;23.252;2023-10-09T03:03:44;95844.25;;;14.77;51.37
9261;BME280;4667;42.726;23.252;2023-10-09T03:06:12;95858.06;;;14.74;52.15
9261;BME280;4667;42.726;23.252;2023-10-09T03:08:44;95829.47;;;14.44;52.14
9261;BME280;4667;42.726;23.252;2023-10-09T03:11:13;95795.00;;;14.12;51.75
9261;BME280;4667;42.726;23.252;2023-10-09T03:13:41;95847.91;;;14.61;51.76
9261;BME280;4667;42.726;23.252;2023-10-09T03:16:11;95844.13;;;14.52;51.65
9261;BME280;4667;42.726;23.252;2023-10-09T03:18:41;95866.81;;;14.75;51.36
9261;BME280;4667;42.726;23.252;2023-10-09T03:21:08;95876.88;;;14.68;51.52
9261;BME280;4667;42.726;23.252;2023-10-09T03:23:35;95859.19;;;14.46;51.87
9261;BME280;4667;42.726;23.252;2023-10-09T03:26:01;95875.22;;;14.56;51.76
9261;BME280;4667;42.726;23.252;2023-10-09T03:28:29;95881.97;;;14.42;51.94
9261;BME280;4667;42.726;23.252;2023-10-09T03:30:55;95888.16;;;14.48;51.80
9261;BME280;4667;42.726;23.252;2023-10-09T03:33:26;95877.41;;;14.32;51.91
9261;BME280;4667;42.726;23.252;2023-10-09T03:35:53;95902.50;;;14.52;51.74
9261;BME280;4667;42.726;23.252;2023-10-09T03:38:21;95907.47;;;14.43;51.44
9261;BME280;4667;42.726;23.252;2023-10-09T03:40:47;95909.69;;;14.51;51.07
9261;BME280;4667;42.726;23.252;2023-10-09T03:43:14;95877.97;;;14.35;51.28
9261;BME280;4667;42.726;23.252;2023-10-09T03:45:41;95894.41;;;14.37;51.26
9261;BME280;4667;42.726;23.252;2023-10-09T03:48:14;95897.00;;;14.26;51.24
9261;BME280;4667;42.726;23.252;2023-10-09T03:50:48;95887.75;;;14.29;51.07
9261;BME280;4667;42.726;23.252;2023-10-09T03:53:27;95909.09;;;14.44;51.02
9261;BME280;4667;42.726;23.252;2023-10-09T03:55:55;95904.19;;;14.31;51.27
9261;BME280;4667;42.726;23.252;2023-10-09T03:58:22;95896.06;;;14.11;51.35
9261;BME280;4667;42.726;23.252;2023-10-09T04:00:48;95919.69;;;14.12;51.58
9261;BME280;4667;42.726;23.252;2023-10-09T04:03:17;95914.59;;;14.05;51.75
9261;BME280;4667;42.726;23.252;2023-10-09T04:05:45;95917.50;;;14.04;51.75
9261;BME280;4667;42.726;23.252;2023-10-09T04:08:13;95921.94;;;13.93;51.79
9261;BME280;4667;42.726;23.252;2023-10-09T04:10:45;95818.31;;;13.19;51.96
9261;BME280;4667;42.726;23.252;2023-10-09T04:13:26;95732.63;;;12.54;52.14
9261;BME280;4667;42.726;23.252;2023-10-09T04:15:59;95925.88;;;13.64;52.18
9261;BME280;4667;42.726;23.252;2023-10-09T04:18:34;95900.16;;;13.37;52.07
9261;BME280;4667;42.726;23.252;2023-10-09T04:21:04;95929.41;;;13.47;51.94
9261;BME280;4667;42.726;23.252;2023-10-09T04:23:45;95926.31;;;13.34;52.88
9261;BME280;4667;42.726;23.252;2023-10-09T04:26:48;95926.56;;;13.32;51.92
9261;BME280;4667;42.726;23.252;2023-10-09T04:29:21;95933.16;;;13.30;51.80
9261;BME280;4667;42.726;23.252;2023-10-09T04:31:51;95936.66;;;13.35;51.43
9261;BME280;4667;42.726;23.252;2023-10-09T04:34:20;95939.81;;;13.32;51.45
9261;BME280;4667;42.726;23.252;2023-10-09T04:37:01;95941.63;;;13.26;51.97
9261;BME280;4667;42.726;23.252;2023-10-09T04:39:46;95929.66;;;13.24;51.62
9261;BME280;4667;42.726;23.252;2023-10-09T04:42:15;95935.59;;;13.31;51.82
9261;BME280;4667;42.726;23.252;2023-10-09T04:44:45;95930.75;;;13.28;51.29
9261;BME280;4667;42.726;23.252;2023-10-09T04:47:46;95929.66;;;13.24;51.46
9261;BME280;4667;42.726;23.252;2023-10-09T04:50:24;95916.31;;;13.19;51.02
9261;BME280;4667;42.726;23.252;2023-10-09T04:53:12;95933.41;;;13.28;50.69
9261;BME280;4667;42.726;23.252;2023-10-09T04:55:51;95940.00;;;13.47;50.72
9261;BME280;4667;42.726;23.252;2023-10-09T04:58:23;95884.88;;;13.22;50.22
9261;BME280;4667;42.726;23.252;2023-10-09T05:00:51;95940.38;;;13.34;50.15
9261;BME280;4667;42.726;23.252;2023-10-09T05:03:30;95885.47;;;12.86;50.33
9261;BME280;4667;42.726;23.252;2023-10-09T05:06:10;95952.00;;;13.33;50.14
9261;BME280;4667;42.726;23.252;2023-10-09T05:09:06;95952.88;;;13.39;49.83
9261;BME280;4667;42.726;23.252;2023-10-09T05:11:40;95946.03;;;13.21;50.21
9261;BME280;4667;42.726;23.252;2023-10-09T05:14:24;95954.41;;;13.35;49.38
9261;BME280;4667;42.726;23.252;2023-10-09T05:17:04;95959.47;;;13.36;49.08
9261;BME280;4667;42.726;23.252;2023-10-09T05:19:32;95964.16;;;13.29;49.10
9261;BME280;4667;42.726;23.252;2023-10-09T05:22:20;95969.50;;;13.34;48.38
9261;BME280;4667;42.726;23.252;2023-10-09T05:24:56;95971.91;;;13.36;48.55
9261;BME280;4667;42.726;23.252;2023-10-09T05:27:25;95973.63;;;13.25;48.10
9261;BME280;4667;42.726;23.252;2023-10-09T05:30:06;95982.22;;;13.32;48.11
9261;BME280;4667;42.726;23.252;2023-10-09T05:32:50;95982.03;;;13.39;47.79
9261;BME280;4667;42.726;23.252;2023-10-09T05:35:21;95985.47;;;13.39;48.00
9261;BME280;4667;42.726;23.252;2023-10-09T05:38:08;95983.69;;;13.23;47.84
9261;BME280;4667;42.726;23.252;2023-10-09T05:40:51;95990.31;;;13.25;48.03
9261;BME280;4667;42.726;23.252;2023-10-09T05:43:21;95980.22;;;13.22;47.41
9261;BME280;4667;42.726;23.252;2023-10-09T05:46:05;96010.97;;;13.45;47.73
9261;BME280;4667;42.726;23.252;2023-10-09T05:48:35;96014.63;;;13.39;47.43
9261;BME280;4667;42.726;23.252;2023-10-09T05:51:19;96012.72;;;13.57;47.13
9261;BME280;4667;42.726;23.252;2023-10-09T05:54:00;96013.28;;;13.59;46.93
9261;BME280;4667;42.726;23.252;2023-10-09T05:57:10;96022.16;;;13.69;46.64
9261;BME280;4667;42.726;23.252;2023-10-09T05:59:51;96016.97;;;13.79;46.32
9261;BME280;4667;42.726;23.252;2023-10-09T06:02:36;96032.69;;;13.86;46.25
9261;BME280;4667;42.726;23.252;2023-10-09T06:05:25;96032.06;;;13.79;46.06
9261;BME280;4667;42.726;23.252;2023-10-09T06:08:16;96039.03;;;13.85;45.30
9261;BME280;4667;42.726;23.252;2023-10-09T06:10:50;96045.13;;;13.86;44.91
9261;BME280;4667;42.726;23.252;2023-10-09T06:13:31;96031.59;;;13.82;44.41
9261;BME280;4667;42.726;23.252;2023-10-09T06:16:06;96027.81;;;14.00;44.10
9261;BME280;4667;42.726;23.252;2023-10-09T06:18:45;96045.41;;;14.11;43.54
9261;BME280;4667;42.726;23.252;2023-10-09T06:21:19;96057.72;;;13.95;43.70
9261;BME280;4667;42.726;23.252;2023-10-09T06:23:59;96063.81;;;14.18;43.34
9261;BME280;4667;42.726;23.252;2023-10-09T06:26:42;96064.91;;;14.22;42.63
9261;BME280;4667;42.726;23.252;2023-10-09T06:29:33;96051.34;;;14.18;43.16
9261;BME280;4667;42.726;23.252;2023-10-09T06:32:02;96055.44;;;14.31;42.99
9261;BME280;4667;42.726;23.252;2023-10-09T06:34:43;96054.66;;;14.30;42.49
9261;BME280;4667;42.726;23.252;2023-10-09T06:37:12;96059.97;;;14.30;42.29
9261;BME280;4667;42.726;23.252;2023-10-09T06:40:00;96057.09;;;14.37;42.02
9261;BME280;4667;42.726;23.252;2023-10-09T06:42:44;96059.75;;;14.37;41.54
9261;BME280;4667;42.726;23.252;2023-10-09T06:45:16;96075.06;;;14.52;41.64
9261;BME280;4667;42.726;23.252;2023-10-09T06:47:48;96065.09;;;14.64;40.69
9261;BME280;4667;42.726;23.252;2023-10-09T06:50:22;96059.91;;;14.79;40.14
9261;BME280;4667;42.726;23.252;2023-10-09T06:53:12;96050.53;;;14.72;39.76
9261;BME280;4667;42.726;23.252;2023-10-09T06:55:50;96053.25;;;14.77;38.97
9261;BME280;4667;42.726;23.252;2023-10-09T06:58:18;96054.69;;;14.90;39.26
9261;BME280;4667;42.726;23.252;2023-10-09T07:00:49;96051.53;;;14.98;39.00
9261;BME280;4667;42.726;23.252;2023-10-09T07:03:28;96057.38;;;14.95;38.10
9261;BME280;4667;42.726;23.252;2023-10-09T07:06:03;96041.91;;;14.87;38.21
9261;BME280;4667;42.726;23.252;2023-10-09T07:08:35;95957.47;;;14.51;38.50
9261;BME280;4667;42.726;23.252;2023-10-09T07:11:03;96020.28;;;15.10;37.94
9261;BME280;4667;42.726;23.252;2023-10-09T07:13:44;95934.09;;;14.53;38.31
9261;BME280;4667;42.726;23.252;2023-10-09T07:16:20;95961.75;;;14.95;36.92
9261;BME280;4667;42.726;23.252;2023-10-09T07:18:50;95942.84;;;14.86;36.27
9261;BME280;4667;42.726;23.252;2023-10-09T07:21:20;96047.59;;;16.00;34.96
9261;BME280;4667;42.726;23.252;2023-10-09T07:23:54;96044.25;;;16.41;34.42
9261;BME280;4667;42.726;23.252;2023-10-09T07:26:24;96052.56;;;16.75;33.28
9261;BME280;4667;42.726;23.252;2023-10-09T07:29:03;96055.44;;;17.34;31.94
9261;BME280;4667;42.726;23.252;2023-10-09T07:31:41;96050.84;;;17.65;31.49
9261;BME280;4667;42.726;23.252;2023-10-09T07:34:12;95892.88;;;17.19;31.15
9261;BME280;4667;42.726;23.252;2023-10-09T07:36:58;96065.81;;;18.26;30.96
9261;BME280;4667;42.726;23.252;2023-10-09T07:39:30;95990.84;;;18.23;29.93
9261;BME280;4667;42.726;23.252;2023-10-09T07:42:01;96064.81;;;18.61;29.83
9261;BME280;4667;42.726;23.252;2023-10-09T07:44:43;96061.03;;;19.07;28.80
9261;BME280;4667;42.726;23.252;2023-10-09T07:47:18;96026.53;;;19.63;28.60
9261;BME280;4667;42.726;23.252;2023-10-09T07:50:12;96046.78;;;20.17;26.30
9261;BME280;4667;42.726;23.252;2023-10-09T07:52:46;95888.81;;;19.56;25.75
9261;BME280;4667;42.726;23.252;2023-10-09T07:55:15;96041.75;;;21.05;24.42
9261;BME280;4667;42.726;23.252;2023-10-09T07:57:51;95933.78;;;20.67;24.62
9261;BME280;4667;42.726;23.252;2023-10-09T08:00:18;96039.97;;;21.47;24.90
9261;BME280;4667;42.726;23.252;2023-10-09T08:03:23;96041.06;;;21.73;23.54
9261;BME280;4667;42.726;23.252;2023-10-09T08:05:51;96044.38;;;21.70;23.76
9261;BME280;4667;42.726;23.252;2023-10-09T08:08:32;96042.75;;;21.42;23.82
9261;BME280;4667;42.726;23.252;2023-10-09T08:11:28;96043.44;;;21.75;23.46
9261;BME280;4667;42.726;23.252;2023-10-09T08:14:20;96050.63;;;21.66;23.30
9261;BME280;4667;42.726;23.252;2023-10-09T08:17:07;96060.06;;;21.77;23.71
9261;BME280;4667;42.726;23.252;2023-10-09T08:19:39;96048.72;;;21.80;22.77
9261;BME280;4667;42.726;23.252;2023-10-09T08:22:22;96049.78;;;22.48;22.75
9261;BME280;4667;42.726;23.252;2023-10-09T08:25:03;96044.06;;;22.27;22.45
9261;BME280;4667;42.726;23.252;2023-10-09T08:27:30;96041.50;;;22.58;22.07
9261;BME280;4667;42.726;23.252;2023-10-09T08:30:20;96037.09;;;22.84;22.30
9261;BME280;4667;42.726;23.252;2023-10-09T08:33:06;96032.09;;;23.14;22.46
9261;BME280;4667;42.726;23.252;2023-10-09T08:35:47;96023.84;;;23.42;21.34
9261;BME280;4667;42.726;23.252;2023-10-09T08:38:16;96019.78;;;23.53;19.53
9261;BME280;4667;42.726;23.252;2023-10-09T08:40:49;96011.50;;;23.41;19.81
9261;BME280;4667;42.726;23.252;2023-10-09T08:43:17;96009.34;;;23.20;20.17
9261;BME280;4667;42.726;23.252;2023-10-09T08:45:45;96005.47;;;23.66;20.36
9261;BME280;4667;42.726;23.252;2023-10-09T08:48:13;95996.13;;;23.72;19.58
9261;BME280;4667;42.726;23.252;2023-10-09T08:50:42;96000.41;;;23.73;19.84
9261;BME280;4667;42.726;23.252;2023-10-09T08:53:10;96003.13;;;23.82;20.20
9261;BME280;4667;42.726;23.252;2023-10-09T08:55:38;95998.50;;;23.65;19.63
9261;BME280;4667;42.726;23.252;2023-10-09T08:58:06;96001.34;;;23.69;19.49
9261;BME280;4667;42.726;23.252;2023-10-09T09:00:39;95943.31;;;23.14;19.77
9261;BME280;4667;42.726;23.252;2023-10-09T09:03:08;96000.69;;;24.29;19.60
9261;BME280;4667;42.726;23.252;2023-10-09T09:05:35;95969.56;;;24.05;19.20
9261;BME280;4667;42.726;23.252;2023-10-09T09:08:02;96007.50;;;23.07;21.00
9261;BME280;4667;42.726;23.252;2023-10-09T09:10:30;96006.41;;;23.08;20.72
9261;BME280;4667;42.726;23.252;2023-10-09T09:13:02;96015.03;;;22.96;20.39
9261;BME280;4667;42.726;23.252;2023-10-09T09:15:29;96008.81;;;22.28;20.81
9261;BME280;4667;42.726;23.252;2023-10-09T09:18:04;96013.34;;;22.42;21.80
9261;BME280;4667;42.726;23.252;2023-10-09T09:20:37;96004.47;;;22.41;21.35
9261;BME280;4667;42.726;23.252;2023-10-09T09:23:09;96011.59;;;22.60;21.23
9261;BME280;4667;42.726;23.252;2023-10-09T09:25:42;96012.19;;;22.56;20.43
9261;BME280;4667;42.726;23.252;2023-10-09T09:28:12;95999.75;;;22.24;20.85
9261;BME280;4667;42.726;23.252;2023-10-09T09:30:45;95998.88;;;22.51;20.47
9261;BME280;4667;42.726;23.252;2023-10-09T09:33:20;96001.44;;;22.56;20.29
9261;BME280;4667;42.726;23.252;2023-10-09T09:36:06;95987.09;;;23.06;19.80
9261;BME280;4667;42.726;23.252;2023-10-09T09:38:34;95980.31;;;23.48;19.04
9261;BME280;4667;42.726;23.252;2023-10-09T09:41:14;95987.38;;;24.76;17.77
9261;BME280;4667;42.726;23.252;2023-10-09T09:43:51;95976.41;;;24.81;17.02
9261;BME280;4667;42.726;23.252;2023-10-09T09:46:21;95974.78;;;25.06;17.21
9261;BME280;4667;42.726;23.252;2023-10-09T09:48:53;95922.06;;;25.17;17.12
9261;BME280;4667;42.726;23.252;2023-10-09T09:51:25;95944.59;;;25.59;16.12
9261;BME280;4667;42.726;23.252;2023-10-09T09:53:54;95970.59;;;25.64;15.47
9261;BME280;4667;42.726;23.252;2023-10-09T09:56:24;95955.38;;;25.98;15.02
9261;BME280;4667;42.726;23.252;2023-10-09T09:58:53;95960.91;;;26.22;15.57
9261;BME280;4667;42.726;23.252;2023-10-09T10:01:24;95952.22;;;26.91;15.80
9261;BME280;4667;42.726;23.252;2023-10-09T10:03:55;95954.38;;;27.68;14.84
9261;BME280;4667;42.726;23.252;2023-10-09T10:06:25;95951.78;;;27.35;13.61
9261;BME280;4667;42.726;23.252;2023-10-09T10:08:54;95947.22;;;28.37;13.32
9261;BME280;4667;42.726;23.252;2023-10-09T10:11:43;95940.94;;;27.47;13.72
9261;BME280;4667;42.726;23.252;2023-10-09T10:14:12;95929.53;;;27.29;13.96
9261;BME280;4667;42.726;23.252;2023-10-09T10:17:03;95916.53;;;27.96;13.68
9261;BME280;4667;42.726;23.252;2023-10-09T10:20:09;95919.28;;;28.36;14.32
9261;BME280;4667;42.726;23.252;2023-10-09T10:23:14;95901.38;;;28.91;12.87
9261;BME280;4667;42.726;23.252;2023-10-09T10:25:44;95908.09;;;28.38;12.37
9261;BME280;4667;42.726;23.252;2023-10-09T10:28:22;95893.38;;;28.39;12.87
9261;BME280;4667;42.726;23.252;2023-10-09T10:31:05;95891.16;;;29.00;12.41
9261;BME280;4667;42.726;23.252;2023-10-09T10:34:05;95883.72;;;29.61;12.49
9261;BME280;4667;42.726;23.252;2023-10-09T10:36:36;95872.41;;;29.27;12.60
9261;BME280;4667;42.726;23.252;2023-10-09T10:39:08;95859.28;;;28.54;12.65
9261;BME280;4667;42.726;23.252;2023-10-09T10:41:36;95857.13;;;29.70;12.73
9261;BME280;4667;42.726;23.252;2023-10-09T10:44:23;95854.22;;;29.98;12.35
9261;BME280;4667;42.726;23.252;2023-10-09T10:47:12;95861.28;;;30.38;12.70
9261;BME280;4667;42.726;23.252;2023-10-09T10:49:51;95855.31;;;30.51;12.55
9261;BME280;4667;42.726;23.252;2023-10-09T10:52:23;95840.75;;;30.63;12.04
9261;BME280;4667;42.726;23.252;2023-10-09T10:55:12;95848.06;;;30.78;11.93
9261;BME280;4667;42.726;23.252;2023-10-09T10:58:16;95842.41;;;30.48;12.69
9261;BME280;4667;42.726;23.252;2023-10-09T11:00:53;95847.50;;;30.50;11.93
9261;BME280;4667;42.726;23.252;2023-10-09T11:03:38;95845.19;;;29.74;12.47
9261;BME280;4667;42.726;23.252;2023-10-09T11:06:27;95835.75;;;30.07;12.40
9261;BME280;4667;42.726;23.252;2023-10-09T11:09:04;95838.34;;;29.14;12.37
9261;BME280;4667;42.726;23.252;2023-10-09T11:11:48;95826.72;;;29.48;12.08
9261;BME280;4667;42.726;23.252;2023-10-09T11:14:16;95815.06;;;30.02;11.93
9261;BME280;4667;42.726;23.252;2023-10-09T11:16:48;95815.44;;;29.82;12.45
9261;BME280;4667;42.726;23.252;2023-10-09T11:19:21;95801.41;;;29.44;12.21
9261;BME280;4667;42.726;23.252;2023-10-09T11:21:59;95809.78;;;29.90;13.70
9261;BME280;4667;42.726;23.252;2023-10-09T11:24:49;95756.19;;;29.36;12.64
9261;BME280;4667;42.726;23.252;2023-10-09T11:27:37;95793.25;;;29.80;12.59
9261;BME280;4667;42.726;23.252;2023-10-09T11:30:06;95775.38;;;30.17;12.70
9261;BME280;4667;42.726;23.252;2023-10-09T11:32:36;95801.50;;;30.22;11.81
9261;BME280;4667;42.726;23.252;2023-10-09T11:35:12;95740.38;;;30.39;12.39
9261;BME280;4667;42.726;23.252;2023-10-09T11:37:42;95785.44;;;30.36;12.05
9261;BME280;4667;42.726;23.252;2023-10-09T11:40:27;95743.81;;;30.59;11.55
9261;BME280;4667;42.726;23.252;2023-10-09T11:43:00;95777.28;;;31.28;11.50
9261;BME280;4667;42.726;23.252;2023-10-09T11:45:29;95773.69;;;31.50;11.41
9261;BME280;4667;42.726;23.252;2023-10-09T11:48:16;95719.06;;;30.90;11.87
9261;BME280;4667;42.726;23.252;2023-10-09T11:50:48;95752.56;;;31.17;11.53
9261;BME280;4667;42.726;23.252;2023-10-09T11:53:21;95676.50;;;30.55;11.41
9261;BME280;4667;42.726;23.252;2023-10-09T11:56:00;95743.09;;;31.34;11.55
9261;BME280;4667;42.726;23.252;2023-10-09T11:58:27;95737.56;;;31.04;11.42
9261;BME280;4667;42.726;23.252;2023-10-09T12:00:55;95741.94;;;31.35;11.52
9261;BME280;4667;42.726;23.252;2023-10-09T12:03:25;95727.06;;;31.02;11.10
9261;BME280;4667;42.726;23.252;2023-10-09T12:05:57;95694.25;;;31.52;10.84
9261;BME280;4667;42.726;23.252;2023-10-09T12:08:29;95708.47;;;31.68;10.70
9261;BME280;4667;42.726;23.252;2023-10-09T12:10:57;95713.53;;;30.83;10.82
9261;BME280;4667;42.726;23.252;2023-10-09T12:13:24;95712.69;;;30.79;11.67
9261;BME280;4667;42.726;23.252;2023-10-09T12:15:51;95713.50;;;31.33;11.40
9261;BME280;4667;42.726;23.252;2023-10-09T12:18:20;95698.28;;;31.31;11.32
9261;BME280;4667;42.726;23.252;2023-10-09T12:20:47;95703.22;;;31.52;10.84
9261;BME280;4667;42.726;23.252;2023-10-09T12:23:19;95663.66;;;30.79;11.24
9261;BME280;4667;42.726;23.252;2023-10-09T12:25:48;95698.63;;;31.60;11.25
9261;BME280;4667;42.726;23.252;2023-10-09T12:28:15;95681.66;;;31.74;10.96
9261;BME280;4667;42.726;23.252;2023-10-09T12:30:46;95674.75;;;31.20;10.59
9261;BME280;4667;42.726;23.252;2023-10-09T12:33:16;95690.28;;;31.46;10.17
9261;BME280;4667;42.726;23.252;2023-10-09T12:35:43;95692.59;;;31.77;10.73
9261;BME280;4667;42.726;23.252;2023-10-09T12:38:12;95657.09;;;31.10;11.08
9261;BME280;4667;42.726;23.252;2023-10-09T12:40:45;95683.63;;;31.77;11.20
9261;BME280;4667;42.726;23.252;2023-10-09T12:45:45;95677.69;;;32.01;10.65
9261;BME280;4667;42.726;23.252;2023-10-09T12:48:12;95678.13;;;31.73;10.07
9261;BME280;4667;42.726;23.252;2023-10-09T12:50:40;95658.41;;;31.83;10.07
9261;BME280;4667;42.726;23.252;2023-10-09T12:53:10;95669.66;;;31.18;11.00
9261;BME280;4667;42.726;23.252;2023-10-09T12:55:39;95661.84;;;31.17;10.42
9261;BME280;4667;42.726;23.252;2023-10-09T12:58:11;95667.31;;;31.80;10.35
9261;BME280;4667;42.726;23.252;2023-10-09T13:00:40;95665.34;;;32.15;10.65
9261;BME280;4667;42.726;23.252;2023-10-09T13:03:14;95661.78;;;31.40;10.32
9261;BME280;4667;42.726;23.252;2023-10-09T13:05:47;95644.22;;;31.37;10.05
9261;BME280;4667;42.726;23.252;2023-10-09T13:08:21;95642.00;;;31.80;9.68
9261;BME280;4667;42.726;23.252;2023-10-09T13:10:49;95644.75;;;31.83;9.86
9261;BME280;4667;42.726;23.252;2023-10-09T13:13:26;95638.94;;;31.85;9.10
9261;BME280;4667;42.726;23.252;2023-10-09T13:16:06;95627.91;;;31.41;9.65
9261;BME280;4667;42.726;23.252;2023-10-09T13:18:32;95591.16;;;31.61;9.91
9261;BME280;4667;42.726;23.252;2023-10-09T13:21:00;95637.19;;;31.06;9.22
9261;BME280;4667;42.726;23.252;2023-10-09T13:23:30;95626.75;;;31.42;9.78
9261;BME280;4667;42.726;23.252;2023-10-09T13:26:05;95619.47;;;31.49;10.17
9261;BME280;4667;42.726;23.252;2023-10-09T13:28:45;95624.66;;;31.28;10.27
9261;BME280;4667;42.726;23.252;2023-10-09T13:31:12;95615.50;;;31.43;10.59
9261;BME280;4667;42.726;23.252;2023-10-09T13:33:40;95610.06;;;31.47;9.77
9261;BME280;4667;42.726;23.252;2023-10-09T13:36:08;95591.75;;;31.14;10.42
9261;BME280;4667;42.726;23.252;2023-10-09T13:38:42;95623.19;;;30.77;10.93
9261;BME280;4667;42.726;23.252;2023-10-09T13:41:09;95619.47;;;30.89;10.47
9261;BME280;4667;42.726;23.252;2023-10-09T13:43:38;95618.28;;;30.64;10.57
9261;BME280;4667;42.726;23.252;2023-10-09T13:46:08;95611.47;;;30.73;11.44
9261;BME280;4667;42.726;23.252;2023-10-09T13:48:37;95597.53;;;30.25;11.41
9261;BME280;4667;42.726;23.252;2023-10-09T13:51:07;95596.78;;;30.28;11.88
9261;BME280;4667;42.726;23.252;2023-10-09T13:53:40;95592.25;;;30.36;11.81